createdAt,value
2019-02-17T00:02:08.154Z,0.49
2019-02-17T00:04:37.358Z,0.47
2019-02-17T00:07:06.950Z,0.40
2019-02-17T00:09:36.527Z,0.38
2019-02-17T00:12:05.816Z,0.37
2019-02-17T00:14:35.050Z,0.36
2019-02-17T00:17:04.337Z,0.38
2019-02-17T00:19:34.277Z,0.41
2019-02-17T00:22:03.581Z,0.38
2019-02-17T00:24:32.825Z,0.39
2019-02-17T00:27:02.407Z,0.42
2019-02-17T00:29:32.496Z,0.40
2019-02-17T00:32:02.068Z,0.44
2019-02-17T00:34:32.254Z,0.47
2019-02-17T00:37:01.511Z,0.47
2019-02-17T00:39:30.785Z,0.49
2019-02-17T00:42:00.051Z,0.50
2019-02-17T00:44:29.598Z,0.48
2019-02-17T00:47:00.468Z,0.52
2019-02-17T00:49:29.749Z,0.48
2019-02-17T00:51:59.381Z,0.39
2019-02-17T00:54:28.596Z,0.32
2019-02-17T00:56:59.716Z,0.23
2019-02-17T00:59:28.980Z,0.28
2019-02-17T01:02:06.682Z,0.28
2019-02-17T01:04:36.207Z,0.24
2019-02-17T01:07:06.150Z,0.27
2019-02-17T01:09:35.387Z,0.28
2019-02-17T01:12:04.700Z,0.24
2019-02-17T01:14:37.015Z,0.26
2019-02-17T01:17:06.242Z,0.20
2019-02-17T01:19:35.521Z,0.17
2019-02-17T01:22:04.761Z,0.17
2019-02-17T01:24:34.383Z,0.15
2019-02-17T01:27:03.597Z,0.10
2019-02-17T01:29:34.367Z,0.10
2019-02-17T01:32:05.112Z,0.08
2019-02-17T01:34:35.062Z,0.10
2019-02-17T01:37:08.681Z,0.05
2019-02-17T01:39:39.227Z,0.13
2019-02-17T01:42:10.963Z,0.06
2019-02-17T01:44:40.212Z,0.03
2019-02-17T01:47:11.915Z,-0.03
2019-02-17T01:49:41.531Z,-0.07
2019-02-17T01:52:13.037Z,-0.11
2019-02-17T01:54:42.579Z,-0.17
2019-02-17T01:57:14.876Z,-0.19
2019-02-17T01:59:44.492Z,-0.17
2019-02-17T02:02:16.890Z,-0.18
2019-02-17T02:04:46.166Z,-0.23
2019-02-17T02:07:15.410Z,-0.30
2019-02-17T02:09:45.148Z,-0.32
2019-02-17T02:12:14.396Z,-0.23
2019-02-17T02:14:43.936Z,-0.23
2019-02-17T02:17:13.483Z,-0.27
2019-02-17T02:19:43.312Z,-0.21
2019-02-17T02:22:13.989Z,-0.25
2019-02-17T02:24:44.701Z,-0.24
2019-02-17T02:27:15.045Z,-0.28
2019-02-17T02:29:47.959Z,-0.25
2019-02-17T02:32:18.705Z,-0.25
2019-02-17T02:34:49.250Z,-0.26
2019-02-17T02:37:19.685Z,-0.24
2019-02-17T02:39:51.654Z,-0.25
2019-02-17T02:42:29.164Z,-0.31
2019-02-17T02:44:59.224Z,-0.37
2019-02-17T02:47:29.653Z,-0.37
2019-02-17T02:50:01.472Z,-0.48
2019-02-17T02:52:32.824Z,-0.58
2019-02-17T02:55:02.072Z,-0.61
2019-02-17T02:57:34.533Z,-0.59
2019-02-17T03:00:06.087Z,-0.53
2019-02-17T03:02:37.470Z,-0.47
2019-02-17T03:05:07.073Z,-0.55
2019-02-17T03:07:36.589Z,-0.53
2019-02-17T03:10:06.945Z,-0.52
2019-02-17T03:12:37.351Z,-0.54
2019-02-17T03:15:10.482Z,-0.55
2019-02-17T03:17:39.700Z,-0.56
2019-02-17T03:20:11.466Z,-0.54
2019-02-17T03:22:42.818Z,-0.50
2019-02-17T03:25:19.403Z,-0.53
2019-02-17T03:27:49.004Z,-0.50
2019-02-17T03:30:18.934Z,-0.57
2019-02-17T03:32:48.971Z,-0.50
2019-02-17T03:35:18.288Z,-0.54
2019-02-17T03:37:49.156Z,-0.57
2019-02-17T03:40:21.285Z,-0.52
2019-02-17T03:42:51.083Z,-0.60
2019-02-17T03:45:22.213Z,-0.59
2019-02-17T03:47:52.923Z,-0.62
2019-02-17T03:50:22.792Z,-0.62
2019-02-17T03:52:54.754Z,-0.64
2019-02-17T03:55:24.101Z,-0.65
2019-02-17T03:57:53.358Z,-0.70
2019-02-17T04:00:22.615Z,-0.71
2019-02-17T04:02:51.855Z,-0.74
2019-02-17T04:05:23.281Z,-0.75
2019-02-17T04:07:52.517Z,-0.79
2019-02-17T04:10:22.344Z,-0.82
2019-02-17T04:12:51.884Z,-0.84
2019-02-17T04:15:22.619Z,-0.89
2019-02-17T04:17:52.820Z,-0.96
2019-02-17T04:20:22.801Z,-0.92
2019-02-17T04:22:53.692Z,-0.98
2019-02-17T04:25:23.716Z,-0.97
2019-02-17T04:27:57.509Z,-1.00
2019-02-17T04:30:29.643Z,-1.00
2019-02-17T04:32:58.841Z,-0.95
2019-02-17T04:35:28.702Z,-0.99
2019-02-17T04:37:58.479Z,-0.95
2019-02-17T04:40:28.656Z,-1.00
2019-02-17T04:43:00.099Z,-1.00
2019-02-17T04:45:30.244Z,-0.97
2019-02-17T04:48:00.943Z,-1.04
2019-02-17T04:50:30.255Z,-0.97
2019-02-17T04:52:59.468Z,-0.97
2019-02-17T04:55:32.063Z,-1.00
2019-02-17T04:58:01.585Z,-1.02
2019-02-17T05:00:39.676Z,-0.94
2019-02-17T05:03:03.256Z,-0.99
2019-02-17T05:05:32.779Z,-1.05
2019-02-17T05:08:03.099Z,-1.05
2019-02-17T05:10:32.338Z,-1.02
2019-02-17T05:13:01.572Z,-1.06
2019-02-17T05:15:31.841Z,-1.07
2019-02-17T05:18:01.099Z,-1.03
2019-02-17T05:20:32.394Z,-1.04
2019-02-17T05:23:03.866Z,-1.01
2019-02-17T05:25:33.351Z,-1.01
2019-02-17T05:28:02.566Z,-1.04
2019-02-17T05:30:32.068Z,-1.10
2019-02-17T05:33:02.949Z,-1.10
2019-02-17T05:35:34.813Z,-1.15
2019-02-17T05:38:05.949Z,-1.12
2019-02-17T05:40:38.405Z,-1.23
2019-02-17T05:43:08.564Z,-1.22
2019-02-17T05:45:37.863Z,-1.31
2019-02-17T05:48:07.877Z,-1.35
2019-02-17T05:50:38.791Z,-1.42
2019-02-17T05:53:09.081Z,-1.34
2019-02-17T05:55:45.435Z,-1.33
2019-02-17T05:58:17.808Z,-1.32
2019-02-17T06:00:51.362Z,-1.33
2019-02-17T06:03:23.173Z,-1.31
2019-02-17T06:05:53.018Z,-1.31
2019-02-17T06:09:22.147Z,-1.36
2019-02-17T06:11:51.406Z,-1.40
2019-02-17T06:14:20.661Z,-1.43
2019-02-17T06:16:49.937Z,-1.37
2019-02-17T06:19:19.206Z,-1.35
2019-02-17T06:21:48.478Z,-1.29
2019-02-17T06:24:17.757Z,-1.28
2019-02-17T06:26:47.040Z,-1.36
2019-02-17T06:29:16.266Z,-1.36
2019-02-17T06:31:45.559Z,-1.31
2019-02-17T06:34:14.792Z,-1.30
2019-02-17T06:36:44.186Z,-1.28
2019-02-17T06:39:13.410Z,-1.24
2019-02-17T06:41:42.667Z,-1.18
2019-02-17T06:44:11.910Z,-1.17
2019-02-17T06:46:48.355Z,-1.10
2019-02-17T06:49:17.603Z,-0.98
2019-02-17T06:51:46.858Z,-0.85
2019-02-17T06:54:16.103Z,-0.71
2019-02-17T06:56:49.948Z,-0.68
2019-02-17T06:59:19.176Z,-0.43
2019-02-17T07:01:48.579Z,-0.27
2019-02-17T07:04:18.692Z,-0.21
2019-02-17T07:07:00.737Z,-0.06
2019-02-17T07:09:29.965Z,0.20
2019-02-17T07:11:59.326Z,0.44
2019-02-17T07:14:28.656Z,0.77
2019-02-17T07:16:58.168Z,0.90
2019-02-17T07:19:27.525Z,1.20
2019-02-17T07:21:56.819Z,1.33
2019-02-17T07:24:26.182Z,1.57
2019-02-17T07:26:55.401Z,1.76
2019-02-17T07:29:24.712Z,1.92
2019-02-17T07:31:53.948Z,2.29
2019-02-17T07:34:23.229Z,2.55
2019-02-17T07:36:52.469Z,2.77
2019-02-17T07:39:21.728Z,3.23
2019-02-17T07:41:50.957Z,3.73
2019-02-17T07:44:20.199Z,4.66
2019-02-17T07:46:49.532Z,6.78
2019-02-17T07:49:18.808Z,9.43
2019-02-17T07:51:48.026Z,10.93
2019-02-17T07:54:17.280Z,11.96
2019-02-17T07:56:48.436Z,12.99
2019-02-17T07:59:17.475Z,14.38
2019-02-17T08:01:46.723Z,15.58
2019-02-17T08:04:15.984Z,16.09
2019-02-17T08:06:45.245Z,16.35
2019-02-17T08:09:14.493Z,17.45
2019-02-17T08:11:43.742Z,17.80
2019-02-17T08:14:12.993Z,17.76
2019-02-17T08:16:42.217Z,17.50
2019-02-17T08:19:11.484Z,16.64
2019-02-17T08:21:40.717Z,16.58
2019-02-17T08:24:09.964Z,16.43
2019-02-17T08:26:39.176Z,17.00
2019-02-17T08:29:08.451Z,18.08
2019-02-17T08:31:37.682Z,16.91
2019-02-17T08:34:06.920Z,16.19
2019-02-17T08:36:36.173Z,16.02
2019-02-17T08:39:06.330Z,15.48
2019-02-17T08:41:35.647Z,14.89
2019-02-17T08:44:04.886Z,14.73
2019-02-17T08:46:34.153Z,15.15
2019-02-17T08:49:03.437Z,15.31
2019-02-17T08:51:32.697Z,13.94
2019-02-17T08:54:01.924Z,12.55
2019-02-17T08:56:31.280Z,11.52
2019-02-17T08:59:00.502Z,11.41
2019-02-17T09:01:29.882Z,10.87
2019-02-17T09:03:59.124Z,10.74
2019-02-17T09:06:28.393Z,11.08
2019-02-17T09:08:57.674Z,10.88
2019-02-17T09:11:27.054Z,10.65
2019-02-17T09:13:56.328Z,10.87
2019-02-17T09:16:25.600Z,11.14
2019-02-17T09:18:54.921Z,11.05
2019-02-17T09:21:24.174Z,11.11
2019-02-17T09:23:53.406Z,11.08
2019-02-17T09:26:22.656Z,10.93
2019-02-17T09:28:51.939Z,10.93
2019-02-17T09:31:21.196Z,10.81
2019-02-17T09:33:50.444Z,10.88
2019-02-17T09:36:19.721Z,10.88
2019-02-17T09:38:48.953Z,10.74
2019-02-17T09:41:18.222Z,11.21
2019-02-17T09:43:47.473Z,11.79
2019-02-17T09:46:16.746Z,12.21
2019-02-17T09:48:45.998Z,12.69
2019-02-17T09:51:15.271Z,12.98
2019-02-17T09:53:44.520Z,13.17
2019-02-17T09:56:13.790Z,12.98
2019-02-17T09:58:43.010Z,13.32
2019-02-17T10:01:12.255Z,13.41
2019-02-17T10:03:44.451Z,13.68
2019-02-17T10:06:13.710Z,13.71
2019-02-17T10:08:43.019Z,13.60
2019-02-17T10:11:12.274Z,13.90
2019-02-17T10:13:41.536Z,14.05
2019-02-17T10:16:10.912Z,13.42
2019-02-17T10:18:40.137Z,12.51
2019-02-17T10:21:09.387Z,11.92
2019-02-17T10:23:38.627Z,11.88
2019-02-17T10:26:07.882Z,11.79
2019-02-17T10:28:42.377Z,11.66
2019-02-17T10:31:08.097Z,11.71
2019-02-17T10:33:37.341Z,11.80
2019-02-17T10:36:06.599Z,12.30
2019-02-17T10:38:35.918Z,12.83
2019-02-17T10:41:05.193Z,13.21
2019-02-17T10:43:34.427Z,13.21
2019-02-17T10:46:05.960Z,13.12
2019-02-17T10:48:34.638Z,13.39
2019-02-17T10:51:03.911Z,13.55
2019-02-17T10:53:33.169Z,13.84
2019-02-17T10:56:02.433Z,13.88
2019-02-17T10:58:31.659Z,13.69
2019-02-17T11:01:00.902Z,13.86
2019-02-17T11:03:30.165Z,13.36
2019-02-17T11:05:59.479Z,13.13
2019-02-17T11:08:28.720Z,12.82
2019-02-17T11:10:57.986Z,12.41
2019-02-17T11:13:27.242Z,12.31
2019-02-17T11:15:56.459Z,12.14
2019-02-17T11:18:25.709Z,12.20
2019-02-17T11:20:54.967Z,12.19
2019-02-17T11:23:24.219Z,12.08
2019-02-17T11:25:53.437Z,12.32
2019-02-17T11:28:22.833Z,12.43
2019-02-17T11:30:52.060Z,12.15
2019-02-17T11:33:21.315Z,12.19
2019-02-17T11:35:50.529Z,11.94
2019-02-17T11:38:19.791Z,11.95
2019-02-17T11:40:49.018Z,11.93
2019-02-17T11:43:18.255Z,12.14
2019-02-17T11:45:47.483Z,12.06
2019-02-17T11:48:16.747Z,11.93
2019-02-17T11:50:46.013Z,11.93
2019-02-17T11:53:15.274Z,12.06
2019-02-17T11:55:44.579Z,11.86
2019-02-17T11:58:13.821Z,11.92
2019-02-17T12:00:43.088Z,12.29
2019-02-17T12:03:12.329Z,12.70
2019-02-17T12:05:41.562Z,12.37
2019-02-17T12:08:10.876Z,12.53
2019-02-17T12:10:40.111Z,12.60
2019-02-17T12:13:09.337Z,12.89
2019-02-17T12:15:38.612Z,13.35
2019-02-17T12:18:08.023Z,13.90
2019-02-17T12:20:45.636Z,14.16
2019-02-17T12:23:24.992Z,14.28
2019-02-17T12:26:01.353Z,14.69
2019-02-17T12:28:58.736Z,14.83
2019-02-17T12:31:31.865Z,15.02
2019-02-17T12:34:01.148Z,15.94
2019-02-17T12:36:30.407Z,16.23
2019-02-17T12:38:59.675Z,15.15
2019-02-17T12:41:28.980Z,14.85
2019-02-17T12:43:58.208Z,14.64
2019-02-17T12:46:27.472Z,14.25
2019-02-17T12:48:56.721Z,14.15
2019-02-17T12:51:25.975Z,14.05
2019-02-17T12:53:55.250Z,14.11
2019-02-17T12:56:24.466Z,14.15
2019-02-17T12:58:53.717Z,14.38
2019-02-17T13:01:22.945Z,14.36
2019-02-17T13:03:52.175Z,14.58
2019-02-17T13:06:21.445Z,14.75
2019-02-17T13:08:50.686Z,15.04
2019-02-17T13:11:19.948Z,15.29
2019-02-17T13:13:49.176Z,15.05
2019-02-17T13:16:18.446Z,15.39
2019-02-17T13:18:47.674Z,15.62
2019-02-17T13:21:16.924Z,15.58
2019-02-17T13:23:46.166Z,15.85
2019-02-17T13:26:15.435Z,15.92
2019-02-17T13:28:44.694Z,16.49
2019-02-17T13:31:13.957Z,17.03
2019-02-17T13:33:43.243Z,17.12
2019-02-17T13:36:12.497Z,17.51
2019-02-17T13:38:41.736Z,17.07
2019-02-17T13:41:10.982Z,16.81
2019-02-17T13:43:40.230Z,16.81
2019-02-17T13:46:09.496Z,16.69
2019-02-17T13:48:38.745Z,16.41
2019-02-17T13:51:08.040Z,16.54
2019-02-17T13:53:37.275Z,16.83
2019-02-17T13:56:06.518Z,17.32
2019-02-17T13:58:35.826Z,17.32
2019-02-17T14:01:05.082Z,17.97
2019-02-17T14:03:34.345Z,17.98
2019-02-17T14:06:03.603Z,18.40
2019-02-17T14:08:32.833Z,18.51
2019-02-17T14:11:02.084Z,18.62
2019-02-17T14:13:31.306Z,18.29
2019-02-17T14:16:00.584Z,17.76
2019-02-17T14:18:29.815Z,18.02
2019-02-17T14:20:59.078Z,18.35
2019-02-17T14:23:28.487Z,17.76
2019-02-17T14:25:57.735Z,17.88
2019-02-17T14:28:26.975Z,18.13
2019-02-17T14:30:56.245Z,18.54
2019-02-17T14:33:25.489Z,19.00
2019-02-17T14:35:54.741Z,18.94
2019-02-17T14:38:23.981Z,18.73
2019-02-17T14:40:53.248Z,18.07
2019-02-17T14:43:22.484Z,17.79
2019-02-17T14:45:51.771Z,17.51
2019-02-17T14:48:21.009Z,17.36
2019-02-17T14:50:50.296Z,17.91
2019-02-17T14:53:19.543Z,18.44
2019-02-17T14:55:48.806Z,18.48
2019-02-17T14:58:18.055Z,18.70
2019-02-17T15:00:47.312Z,19.01
2019-02-17T15:03:16.680Z,19.30
2019-02-17T15:05:45.926Z,18.77
2019-02-17T15:08:15.184Z,19.05
2019-02-17T15:10:44.426Z,19.44
2019-02-17T15:13:13.698Z,20.04
2019-02-17T15:15:42.922Z,20.25
2019-02-17T15:18:12.218Z,20.15
2019-02-17T15:20:41.465Z,19.75
2019-02-17T15:23:11.590Z,19.15
2019-02-17T15:25:40.825Z,18.88
2019-02-17T15:28:10.077Z,18.54
2019-02-17T15:30:39.309Z,17.83
2019-02-17T15:33:08.556Z,16.92
2019-02-17T15:35:37.803Z,16.21
2019-02-17T15:38:07.065Z,15.35
2019-02-17T15:40:36.360Z,15.35
2019-02-17T15:43:05.669Z,15.06
2019-02-17T15:45:34.911Z,14.76
2019-02-17T15:48:04.242Z,14.40
2019-02-17T15:50:33.508Z,13.98
2019-02-17T15:53:02.774Z,13.73
2019-02-17T15:55:32.007Z,13.60
2019-02-17T15:58:01.278Z,13.34
2019-02-17T16:00:30.523Z,13.18
2019-02-17T16:02:59.767Z,13.01
2019-02-17T16:05:29.029Z,12.94
2019-02-17T16:07:58.280Z,12.75
2019-02-17T16:10:27.501Z,12.60
2019-02-17T16:12:56.751Z,12.45
2019-02-17T16:15:25.996Z,12.24
2019-02-17T16:17:55.247Z,12.05
2019-02-17T16:20:24.468Z,11.84
2019-02-17T16:22:53.735Z,11.66
2019-02-17T16:25:22.959Z,11.46
2019-02-17T16:27:52.211Z,11.25
2019-02-17T16:30:21.497Z,11.02
2019-02-17T16:32:50.732Z,10.87
2019-02-17T16:35:20.020Z,10.72
2019-02-17T16:37:49.266Z,10.59
2019-02-17T16:40:18.525Z,10.42
2019-02-17T16:42:48.044Z,10.23
2019-02-17T16:45:17.310Z,10.10
2019-02-17T16:47:46.555Z,9.96
2019-02-17T16:50:17.880Z,9.83
2019-02-17T16:52:47.096Z,9.71
2019-02-17T16:55:16.359Z,9.61
2019-02-17T16:57:45.692Z,9.51
2019-02-17T17:00:21.259Z,9.38
2019-02-17T17:02:50.712Z,9.23
2019-02-17T17:05:20.053Z,9.09
2019-02-17T17:07:49.281Z,8.94
2019-02-17T17:10:18.600Z,8.87
2019-02-17T17:12:48.055Z,8.73
2019-02-17T17:15:17.708Z,8.61
2019-02-17T17:17:46.955Z,8.51
2019-02-17T17:20:16.373Z,8.41
2019-02-17T17:22:45.615Z,8.30
2019-02-17T17:25:15.217Z,8.16
2019-02-17T17:27:44.675Z,8.13
2019-02-17T17:30:14.158Z,8.04
2019-02-17T17:32:43.379Z,7.92
2019-02-17T17:35:12.624Z,7.89
2019-02-17T17:37:41.851Z,7.80
2019-02-17T17:40:11.705Z,7.72
2019-02-17T17:42:41.019Z,7.59
2019-02-17T17:45:12.511Z,7.46
2019-02-17T17:47:41.729Z,7.38
2019-02-17T17:50:12.337Z,7.26
2019-02-17T17:52:41.557Z,7.14
2019-02-17T17:55:11.145Z,7.06
2019-02-17T17:57:40.360Z,6.95
2019-02-17T18:00:11.954Z,6.84
2019-02-17T18:02:41.186Z,6.77
2019-02-17T18:05:10.640Z,6.70
2019-02-17T18:07:40.014Z,6.61
2019-02-17T18:10:11.474Z,6.52
2019-02-17T18:12:40.700Z,6.48
2019-02-17T18:15:11.260Z,6.48
2019-02-17T18:17:40.486Z,6.37
2019-02-17T18:20:11.531Z,6.34
2019-02-17T18:22:40.775Z,6.17
2019-02-17T18:25:11.717Z,6.09
2019-02-17T18:27:40.949Z,5.95
2019-02-17T18:30:11.956Z,5.83
2019-02-17T18:32:41.178Z,5.66
2019-02-17T18:35:19.081Z,5.52
2019-02-17T18:37:41.609Z,5.37
2019-02-17T18:40:11.548Z,5.42
2019-02-17T18:42:40.774Z,5.40
2019-02-17T18:45:11.141Z,5.42
2019-02-17T18:47:40.629Z,5.36
2019-02-17T18:50:12.104Z,5.34
2019-02-17T18:52:41.444Z,5.28
2019-02-17T18:55:11.644Z,5.17
2019-02-17T18:57:49.436Z,5.11
2019-02-17T19:00:15.766Z,5.02
2019-02-17T19:02:44.979Z,5.01
2019-02-17T19:05:14.254Z,5.00
2019-02-17T19:07:43.485Z,4.97
2019-02-17T19:10:12.946Z,4.92
2019-02-17T19:12:42.190Z,4.84
2019-02-17T19:15:12.828Z,4.75
2019-02-17T19:17:42.055Z,4.62
2019-02-17T19:20:13.393Z,4.50
2019-02-17T19:22:42.620Z,4.47
2019-02-17T19:25:11.959Z,4.34
2019-02-17T19:27:41.187Z,4.28
2019-02-17T19:30:11.676Z,4.22
2019-02-17T19:32:40.902Z,4.18
2019-02-17T19:35:11.212Z,4.19
2019-02-17T19:37:40.442Z,4.07
2019-02-17T19:40:10.899Z,4.12
2019-02-17T19:42:40.145Z,4.04
2019-02-17T19:45:10.931Z,3.86
2019-02-17T19:47:40.173Z,3.84
2019-02-17T19:50:10.791Z,3.82
2019-02-17T19:52:40.241Z,3.88
2019-02-17T19:55:09.736Z,3.89
2019-02-17T19:57:39.009Z,3.83
2019-02-17T20:00:10.799Z,3.81
2019-02-17T20:02:59.059Z,3.81
2019-02-17T20:05:30.687Z,3.76
2019-02-17T20:07:59.928Z,3.67
2019-02-17T20:10:29.190Z,3.70
2019-02-17T20:12:58.484Z,3.66
2019-02-17T20:15:30.071Z,3.49
2019-02-17T20:17:59.355Z,3.44
2019-02-17T20:20:28.612Z,3.45
2019-02-17T20:22:57.878Z,3.41
2019-02-17T20:25:27.098Z,3.36
2019-02-17T20:27:56.350Z,3.40
2019-02-17T20:30:25.594Z,3.33
2019-02-17T20:32:54.841Z,3.32
2019-02-17T20:35:24.082Z,3.26
2019-02-17T20:37:53.326Z,3.29
2019-02-17T20:40:22.547Z,3.27
2019-02-17T20:42:51.796Z,3.27
2019-02-17T20:45:21.024Z,3.20
2019-02-17T20:47:50.274Z,3.21
2019-02-17T20:50:19.543Z,3.24
2019-02-17T20:52:48.794Z,3.20
2019-02-17T20:55:18.005Z,3.26
2019-02-17T20:57:47.284Z,3.26
2019-02-17T21:00:17.512Z,3.24
2019-02-17T21:02:46.773Z,3.19
2019-02-17T21:05:16.016Z,3.16
2019-02-17T21:07:45.282Z,3.09
2019-02-17T21:10:14.532Z,2.94
2019-02-17T21:12:43.816Z,2.76
2019-02-17T21:15:13.753Z,2.75
2019-02-17T21:17:43.009Z,2.76
2019-02-17T21:20:12.533Z,2.65
2019-02-17T21:22:41.786Z,2.63
2019-02-17T21:25:11.030Z,2.46
2019-02-17T21:27:40.499Z,2.45
2019-02-17T21:30:10.307Z,2.43
2019-02-17T21:32:39.556Z,2.35
2019-02-17T21:35:10.494Z,2.19
2019-02-17T21:37:39.758Z,2.10
2019-02-17T21:40:10.248Z,2.09
2019-02-17T21:42:39.501Z,2.04
2019-02-17T21:45:10.396Z,1.89
2019-02-17T21:47:39.651Z,1.83
2019-02-17T21:50:10.197Z,1.73
2019-02-17T21:52:41.786Z,1.77
2019-02-17T21:55:10.663Z,1.80
2019-02-17T21:57:39.933Z,1.75
2019-02-17T22:00:12.385Z,1.85
2019-02-17T22:02:41.642Z,1.74
2019-02-17T22:05:10.861Z,1.79
2019-02-17T22:07:40.149Z,1.82
2019-02-17T22:10:10.237Z,1.90
2019-02-17T22:12:40.000Z,1.90
2019-02-17T22:15:11.192Z,1.90
2019-02-17T22:17:40.468Z,1.88
2019-02-17T22:20:10.215Z,1.91
2019-02-17T22:22:39.468Z,1.90
2019-02-17T22:25:08.706Z,1.88
2019-02-17T22:27:37.966Z,1.86
2019-02-17T22:30:08.665Z,1.91
2019-02-17T22:32:37.922Z,1.88
2019-02-17T22:35:07.182Z,1.92
2019-02-17T22:37:36.435Z,1.85
2019-02-17T22:40:05.945Z,1.80
2019-02-17T22:42:35.182Z,1.76
2019-02-17T22:45:04.630Z,1.63
2019-02-17T22:47:33.869Z,1.72
2019-02-17T22:50:03.164Z,1.67
2019-02-17T22:52:32.468Z,1.67
2019-02-17T22:55:01.808Z,1.50
2019-02-17T22:57:31.096Z,1.53
2019-02-17T23:00:00.408Z,1.52
2019-02-17T23:02:29.785Z,1.49
2019-02-17T23:04:59.201Z,1.48
2019-02-17T23:07:28.444Z,1.42
2019-02-17T23:09:57.703Z,1.41
2019-02-17T23:12:27.129Z,1.33
2019-02-17T23:14:56.387Z,1.25
2019-02-17T23:17:25.629Z,1.19
2019-02-17T23:19:54.882Z,1.24
2019-02-17T23:22:24.160Z,1.24
2019-02-17T23:24:53.408Z,1.16
2019-02-17T23:27:22.848Z,1.20
2019-02-17T23:29:52.140Z,1.26
2019-02-17T23:32:21.382Z,1.10
2019-02-17T23:34:50.638Z,1.03
2019-02-17T23:37:19.885Z,1.10
2019-02-17T23:39:49.132Z,1.12
2019-02-17T23:42:18.356Z,0.95
2019-02-17T23:44:47.591Z,1.00
2019-02-17T23:47:16.817Z,0.98
2019-02-17T23:49:46.097Z,0.96
2019-02-17T23:52:15.354Z,0.97
2019-02-17T23:54:44.608Z,0.95
2019-02-17T23:57:13.836Z,0.96
2019-02-17T23:59:43.094Z,0.93
